createdAt,value
2019-01-17T00:00:31.942Z,-0.69
2019-01-17T00:03:19.724Z,-0.70
2019-01-17T00:06:07.474Z,-0.75
2019-01-17T00:08:49.663Z,-0.76
2019-01-17T00:11:37.236Z,-0.61
2019-01-17T00:14:24.510Z,-0.65
2019-01-17T00:17:11.550Z,-0.53
2019-01-17T00:19:58.800Z,-0.48
2019-01-17T00:22:46.104Z,-0.41
2019-01-17T00:25:33.744Z,-0.24
2019-01-17T00:28:20.698Z,0.15
2019-01-17T00:31:08.489Z,1.13
2019-01-17T00:33:55.763Z,1.94
2019-01-17T00:36:43.305Z,2.72
2019-01-17T00:39:30.631Z,3.08
2019-01-17T00:42:10.281Z,3.31
2019-01-17T00:44:57.875Z,3.47
2019-01-17T00:47:45.435Z,3.55
2019-01-17T00:50:32.757Z,3.55
2019-01-17T00:53:20.405Z,3.49
2019-01-17T00:56:07.971Z,3.32
2019-01-17T00:58:55.573Z,3.24
2019-01-17T01:01:43.241Z,2.86
2019-01-17T01:04:30.849Z,2.98
2019-01-17T01:07:18.429Z,2.96
2019-01-17T01:09:57.323Z,2.94
2019-01-17T01:12:44.218Z,3.19
2019-01-17T01:15:53.517Z,3.27
2019-01-17T01:18:41.125Z,3.41
2019-01-17T01:21:28.480Z,3.45
2019-01-17T01:24:15.829Z,3.51
2019-01-17T01:27:03.203Z,3.61
2019-01-17T01:29:50.789Z,3.61
2019-01-17T01:32:37.726Z,3.52
2019-01-17T01:35:45.995Z,3.58
2019-01-17T01:38:33.536Z,3.62
2019-01-17T01:41:21.259Z,3.63
2019-01-17T01:50:11.892Z,3.58
2019-01-17T01:53:11.369Z,3.66
2019-01-17T01:55:39.544Z,3.66
2019-01-17T01:58:07.993Z,3.59
2019-01-17T02:03:44.395Z,3.48
2019-01-17T02:06:12.690Z,3.49
2019-01-17T02:09:00.301Z,3.56
2019-01-17T02:11:28.696Z,3.53
2019-01-17T02:14:37.211Z,3.58
2019-01-17T02:17:05.381Z,3.50
2019-01-17T02:19:33.239Z,3.54
2019-01-17T02:22:41.771Z,3.55
2019-01-17T02:25:10.425Z,3.58
2019-01-17T02:27:38.554Z,3.65
2019-01-17T02:30:06.670Z,3.61
2019-01-17T02:32:35.096Z,3.62
2019-01-17T02:35:03.679Z,3.64
2019-01-17T02:37:31.843Z,3.65
2019-01-17T02:40:00.328Z,3.58
2019-01-17T02:42:28.117Z,3.57
2019-01-17T02:44:56.351Z,3.58
2019-01-17T02:47:24.380Z,3.64
2019-01-17T02:49:52.461Z,3.65
2019-01-17T02:52:20.550Z,3.64
2019-01-17T02:54:48.696Z,3.68
2019-01-17T02:57:17.220Z,3.73
2019-01-17T02:59:45.768Z,3.68
2019-01-17T03:02:14.060Z,3.75
2019-01-17T03:04:42.457Z,3.69
2019-01-17T03:07:10.514Z,3.71
2019-01-17T03:09:38.587Z,3.73
2019-01-17T03:12:06.746Z,3.72
2019-01-17T03:14:34.909Z,3.71
2019-01-17T03:17:02.968Z,3.63
2019-01-17T03:19:30.665Z,3.74
2019-01-17T03:21:59.102Z,3.73
2019-01-17T03:24:27.151Z,3.66
2019-01-17T03:26:55.219Z,3.75
2019-01-17T03:29:23.610Z,3.65
2019-01-17T03:31:52.053Z,3.60
2019-01-17T03:34:20.187Z,3.67
2019-01-17T03:36:48.369Z,3.69
2019-01-17T03:39:16.774Z,3.53
2019-01-17T03:41:44.770Z,3.42
2019-01-17T03:44:12.913Z,3.35
2019-01-17T03:46:41.397Z,3.23
2019-01-17T03:49:49.487Z,3.16
2019-01-17T03:52:17.258Z,3.21
2019-01-17T03:54:50.593Z,3.15
2019-01-17T03:57:15.971Z,3.26
2019-01-17T03:59:51.400Z,3.25
2019-01-17T04:02:19.209Z,3.35
2019-01-17T04:04:47.350Z,3.35
2019-01-17T04:07:15.507Z,3.31
2019-01-17T04:09:43.910Z,3.41
2019-01-17T04:12:12.093Z,3.48
2019-01-17T04:14:40.189Z,3.48
2019-01-17T04:17:08.105Z,3.42
2019-01-17T04:19:36.121Z,3.46
2019-01-17T04:22:03.979Z,3.41
2019-01-17T04:24:32.490Z,3.53
2019-01-17T04:27:00.266Z,3.60
2019-01-17T04:29:28.030Z,3.55
2019-01-17T04:31:56.141Z,3.54
2019-01-17T04:34:24.603Z,3.54
2019-01-17T04:36:53.080Z,3.50
2019-01-17T04:39:21.501Z,3.48
2019-01-17T04:41:49.951Z,3.42
2019-01-17T04:44:18.371Z,3.44
2019-01-17T04:46:46.510Z,3.46
2019-01-17T04:49:14.940Z,3.46
2019-01-17T04:51:43.490Z,3.50
2019-01-17T04:54:11.423Z,3.45
2019-01-17T04:56:39.646Z,3.52
2019-01-17T05:02:03.769Z,3.38
2019-01-17T05:04:32.322Z,3.45
2019-01-17T05:07:00.689Z,3.40
2019-01-17T05:12:23.571Z,3.25
2019-01-17T05:17:25.152Z,3.22
2019-01-17T05:19:52.996Z,3.22
2019-01-17T05:22:21.503Z,3.31
2019-01-17T05:24:49.885Z,3.29
2019-01-17T05:27:18.269Z,3.33
2019-01-17T05:29:46.759Z,3.21
2019-01-17T05:32:14.854Z,3.04
2019-01-17T05:34:42.921Z,2.79
2019-01-17T05:37:11.394Z,2.72
2019-01-17T05:39:39.831Z,2.58
2019-01-17T05:42:07.662Z,2.46
2019-01-17T05:44:35.856Z,2.56
2019-01-17T05:47:03.987Z,2.53
2019-01-17T05:49:32.035Z,2.44
2019-01-17T05:52:00.281Z,2.43
2019-01-17T05:54:28.771Z,2.48
2019-01-17T05:56:57.229Z,2.35
2019-01-17T05:59:25.631Z,2.34
2019-01-17T06:01:53.711Z,2.15
2019-01-17T06:04:22.199Z,2.06
2019-01-17T06:06:50.690Z,1.89
2019-01-17T06:09:18.809Z,1.76
2019-01-17T06:11:46.883Z,1.61
2019-01-17T06:14:15.265Z,1.61
2019-01-17T06:16:43.664Z,1.51
2019-01-17T06:19:11.385Z,1.53
2019-01-17T06:21:39.456Z,1.49
2019-01-17T06:24:07.263Z,1.44
2019-01-17T06:26:35.367Z,1.44
2019-01-17T06:29:03.171Z,1.40
2019-01-17T06:31:31.321Z,1.34
2019-01-17T06:33:59.950Z,1.35
2019-01-17T06:36:28.473Z,1.32
2019-01-17T06:38:56.707Z,1.28
2019-01-17T06:41:25.108Z,1.22
2019-01-17T06:43:53.351Z,1.32
2019-01-17T06:46:21.861Z,1.25
2019-01-17T06:48:50.579Z,1.20
2019-01-17T06:51:19.250Z,1.27
2019-01-17T06:53:47.010Z,1.25
2019-01-17T06:56:14.776Z,1.37
2019-01-17T06:58:43.290Z,1.31
2019-01-17T07:01:11.455Z,1.39
2019-01-17T07:03:39.889Z,1.39
2019-01-17T07:06:07.621Z,1.37
2019-01-17T07:08:36.091Z,1.43
2019-01-17T07:11:04.547Z,1.39
2019-01-17T07:13:32.296Z,1.41
2019-01-17T07:16:00.486Z,1.36
2019-01-17T07:18:28.653Z,1.44
2019-01-17T07:20:56.809Z,1.47
2019-01-17T07:23:25.286Z,1.44
2019-01-17T07:25:53.349Z,1.39
2019-01-17T07:31:30.234Z,1.42
2019-01-17T07:34:17.824Z,1.38
2019-01-17T07:36:45.869Z,1.36
2019-01-17T07:42:14.828Z,1.41
2019-01-17T07:44:43.219Z,1.39
2019-01-17T07:47:11.714Z,1.42
2019-01-17T07:49:39.887Z,1.50
2019-01-17T07:52:08.523Z,1.62
2019-01-17T07:54:36.561Z,1.72
2019-01-17T07:57:05.014Z,1.83
2019-01-17T08:02:41.724Z,2.10
2019-01-17T08:05:10.003Z,2.18
2019-01-17T08:07:38.492Z,2.25
2019-01-17T08:10:47.406Z,2.25
2019-01-17T08:13:15.907Z,2.31
2019-01-17T08:15:44.403Z,2.34
2019-01-17T08:18:18.527Z,2.36
2019-01-17T08:20:43.286Z,2.61
2019-01-17T08:23:51.447Z,2.68
2019-01-17T08:26:19.262Z,2.68
2019-01-17T08:29:27.765Z,2.89
2019-01-17T08:31:55.535Z,3.04
2019-01-17T08:34:28.310Z,3.12
2019-01-17T08:36:54.245Z,3.25
2019-01-17T08:39:22.327Z,3.31
2019-01-17T08:41:49.995Z,3.34
2019-01-17T08:44:18.431Z,3.33
2019-01-17T08:46:46.556Z,3.31
2019-01-17T08:49:14.410Z,3.47
2019-01-17T08:51:42.941Z,3.58
2019-01-17T08:54:11.345Z,3.54
2019-01-17T08:56:39.157Z,3.60
2019-01-17T08:59:07.642Z,3.63
2019-01-17T09:01:36.062Z,3.68
2019-01-17T09:04:04.415Z,3.67
2019-01-17T09:06:32.494Z,3.63
2019-01-17T09:09:00.981Z,3.56
2019-01-17T09:12:09.484Z,3.56
2019-01-17T09:14:37.645Z,3.39
2019-01-17T09:17:46.141Z,3.22
2019-01-17T09:20:54.848Z,3.19
2019-01-17T09:23:22.685Z,3.10
2019-01-17T09:25:51.351Z,3.01
2019-01-17T09:28:18.963Z,2.95
2019-01-17T09:36:37.215Z,2.95
2019-01-17T09:39:47.640Z,2.99
2019-01-17T09:42:15.403Z,3.00
2019-01-17T09:44:43.789Z,3.01
2019-01-17T09:47:12.113Z,2.92
2019-01-17T09:49:40.210Z,2.85
2019-01-17T09:52:08.741Z,2.77
2019-01-17T09:54:37.186Z,2.73
2019-01-17T09:57:05.278Z,2.68
2019-01-17T09:59:33.491Z,2.61
2019-01-17T10:02:01.951Z,2.70
2019-01-17T10:04:30.361Z,2.75
2019-01-17T10:06:58.802Z,2.81
2019-01-17T10:09:26.203Z,2.83
2019-01-17T10:14:49.329Z,2.85
2019-01-17T10:17:49.650Z,2.93
2019-01-17T10:20:55.955Z,2.90
2019-01-17T10:24:02.169Z,2.96
2019-01-17T10:27:08.907Z,2.92
2019-01-17T10:30:15.661Z,2.90
2019-01-17T10:33:22.256Z,2.93
2019-01-17T10:36:14.055Z,2.88
2019-01-17T10:39:20.354Z,2.83
2019-01-17T10:42:26.890Z,2.85
2019-01-17T10:45:33.396Z,2.95
2019-01-17T10:48:39.948Z,2.90
2019-01-17T10:51:46.449Z,2.88
2019-01-17T10:54:53.064Z,2.74
2019-01-17T10:57:59.605Z,2.58
2019-01-17T11:01:05.869Z,2.43
2019-01-17T11:04:21.371Z,2.46
2019-01-17T11:10:57.755Z,2.63
2019-01-17T11:13:49.490Z,2.65
2019-01-17T11:16:40.331Z,2.73
2019-01-17T11:19:46.325Z,2.84
2019-01-17T11:22:40.088Z,2.92
2019-01-17T11:25:46.696Z,2.96
2019-01-17T11:28:53.308Z,2.96
2019-01-17T11:31:59.926Z,3.02
2019-01-17T11:35:06.616Z,3.09
2019-01-17T11:37:59.251Z,3.09
2019-01-17T11:40:51.491Z,3.12
2019-01-17T11:43:58.065Z,3.21
2019-01-17T11:47:04.792Z,3.19
2019-01-17T11:50:11.356Z,3.33
2019-01-17T11:53:04.005Z,3.39
2019-01-17T11:55:54.892Z,3.34
2019-01-17T11:59:01.108Z,3.30
2019-01-17T12:01:53.159Z,3.30
2019-01-17T12:04:39.408Z,3.15
2019-01-17T12:07:49.124Z,3.25
2019-01-17T12:10:17.347Z,3.14
2019-01-17T12:15:21.757Z,3.17
2019-01-17T12:17:50.027Z,3.24
2019-01-17T12:20:18.467Z,3.23
2019-01-17T12:22:46.569Z,3.19
2019-01-17T12:25:14.301Z,3.21
2019-01-17T12:27:42.861Z,3.26
2019-01-17T12:30:12.850Z,3.16
2019-01-17T12:32:40.991Z,3.17
2019-01-17T12:35:10.650Z,3.22
2019-01-17T12:37:39.287Z,3.23
2019-01-17T12:40:09.320Z,3.23
2019-01-17T12:42:37.527Z,3.22
2019-01-17T12:45:06.914Z,3.19
2019-01-17T12:47:35.182Z,3.19
2019-01-17T12:53:11.563Z,3.25
2019-01-17T12:55:40.065Z,3.17
2019-01-17T12:58:07.461Z,3.14
2019-01-17T13:00:36.003Z,3.16
2019-01-17T13:03:04.188Z,3.13
2019-01-17T13:05:32.287Z,3.16
2019-01-17T13:08:00.533Z,3.23
2019-01-17T13:10:28.043Z,3.16
2019-01-17T13:12:55.859Z,3.18
2019-01-17T13:15:24.364Z,3.11
2019-01-17T13:17:52.747Z,3.07
2019-01-17T13:20:24.152Z,3.02
2019-01-17T13:23:32.336Z,3.07
2019-01-17T13:26:00.717Z,3.02
2019-01-17T13:28:28.453Z,3.07
2019-01-17T13:30:57.026Z,3.01
2019-01-17T13:33:25.159Z,2.95
2019-01-17T13:35:53.601Z,2.98
2019-01-17T13:38:21.977Z,2.99
2019-01-17T13:40:50.602Z,3.00
2019-01-17T13:43:18.757Z,3.01
2019-01-17T13:45:46.521Z,2.94
2019-01-17T13:48:13.871Z,2.88
2019-01-17T13:51:01.422Z,2.85
2019-01-17T13:53:29.598Z,2.80
2019-01-17T13:58:52.586Z,2.76
2019-01-17T14:01:20.736Z,2.73
2019-01-17T14:03:48.806Z,2.70
2019-01-17T14:06:57.069Z,2.67
2019-01-17T14:09:25.601Z,2.64
2019-01-17T14:11:54.135Z,2.65
2019-01-17T14:14:22.261Z,2.67
2019-01-17T14:16:50.836Z,2.70
2019-01-17T14:19:19.351Z,2.66
2019-01-17T14:21:47.837Z,2.59
2019-01-17T14:24:16.231Z,2.47
2019-01-17T14:26:44.802Z,2.27
2019-01-17T14:29:13.066Z,2.18
2019-01-17T14:31:41.483Z,2.14
2019-01-17T14:34:09.665Z,2.07
2019-01-17T14:36:38.016Z,2.01
2019-01-17T14:39:07.118Z,2.04
2019-01-17T14:41:35.199Z,2.13
2019-01-17T14:44:03.506Z,2.26
2019-01-17T14:46:30.966Z,2.30
2019-01-17T14:48:58.772Z,2.33
2019-01-17T14:51:25.795Z,2.41
2019-01-17T14:53:53.856Z,2.58
2019-01-17T14:56:21.948Z,3.23
2019-01-17T14:58:50.082Z,3.30
2019-01-17T15:01:18.592Z,3.10
2019-01-17T15:03:46.999Z,2.98
2019-01-17T15:06:15.151Z,2.87
2019-01-17T15:08:43.644Z,2.74
2019-01-17T15:11:12.238Z,2.69
2019-01-17T15:13:40.417Z,2.56
2019-01-17T15:16:08.505Z,2.49
2019-01-17T15:18:36.272Z,2.49
2019-01-17T15:21:04.923Z,2.40
2019-01-17T15:23:32.731Z,2.44
2019-01-17T15:26:01.202Z,2.51
2019-01-17T15:28:29.166Z,2.49
2019-01-17T15:30:57.398Z,2.44
2019-01-17T15:33:26.010Z,2.42
2019-01-17T15:35:54.580Z,2.44
2019-01-17T15:38:23.049Z,2.47
2019-01-17T15:40:51.554Z,2.50
2019-01-17T15:43:19.678Z,2.49
2019-01-17T15:45:47.937Z,2.41
2019-01-17T15:48:15.722Z,2.38
2019-01-17T15:50:43.862Z,2.32
2019-01-17T15:53:12.171Z,2.32
2019-01-17T15:55:40.712Z,2.36
2019-01-17T15:58:08.733Z,2.23
2019-01-17T16:00:36.559Z,2.19
2019-01-17T16:03:04.317Z,2.24
2019-01-17T16:05:32.569Z,2.23
2019-01-17T16:08:00.274Z,2.22
2019-01-17T16:10:27.751Z,2.33
2019-01-17T16:12:56.343Z,2.28
2019-01-17T16:15:26.356Z,2.24
2019-01-17T16:17:54.196Z,2.19
2019-01-17T16:20:22.690Z,2.18
2019-01-17T16:25:59.555Z,2.14
2019-01-17T16:28:28.293Z,2.08
2019-01-17T16:30:56.966Z,2.14
2019-01-17T16:33:24.417Z,2.12
2019-01-17T16:35:52.603Z,2.14
2019-01-17T16:38:20.896Z,2.20
2019-01-17T16:46:30.925Z,2.18
2019-01-17T16:48:59.556Z,2.20
2019-01-17T16:52:08.071Z,2.28
2019-01-17T16:54:36.387Z,2.27
2019-01-17T16:57:04.760Z,2.12
2019-01-17T16:59:33.220Z,1.97
2019-01-17T17:02:01.644Z,1.76
2019-01-17T17:04:29.042Z,1.54
2019-01-17T17:06:57.584Z,1.42
2019-01-17T17:09:26.161Z,1.26
2019-01-17T17:11:54.717Z,1.31
2019-01-17T17:14:22.477Z,1.32
2019-01-17T17:16:50.662Z,1.35
2019-01-17T17:19:18.622Z,1.36
2019-01-17T17:21:47.218Z,1.36
2019-01-17T17:24:15.427Z,1.29
2019-01-17T17:26:43.219Z,1.24
2019-01-17T17:29:11.360Z,1.10
2019-01-17T17:31:39.766Z,1.12
2019-01-17T17:34:08.356Z,1.17
2019-01-17T17:36:36.402Z,1.20
2019-01-17T17:39:46.590Z,1.23
2019-01-17T17:42:14.784Z,1.29
2019-01-17T17:44:42.977Z,1.27
2019-01-17T17:47:11.502Z,1.34
2019-01-17T17:49:39.685Z,1.27
2019-01-17T17:55:16.252Z,1.25
2019-01-17T17:57:44.458Z,1.31
2019-01-17T18:00:51.147Z,1.26
2019-01-17T18:06:28.172Z,1.29
2019-01-17T18:09:36.356Z,1.23
2019-01-17T18:12:04.189Z,1.32
2019-01-17T18:14:31.967Z,1.24
2019-01-17T18:17:00.193Z,1.33
2019-01-17T18:19:28.228Z,1.37
2019-01-17T18:21:56.867Z,1.39
2019-01-17T18:24:25.101Z,1.45
2019-01-17T18:26:52.943Z,1.50
2019-01-17T18:29:21.174Z,1.47
2019-01-17T18:31:49.361Z,1.46
2019-01-17T18:34:17.456Z,1.42
2019-01-17T18:36:45.970Z,1.39
2019-01-17T18:39:13.803Z,1.42
2019-01-17T18:44:15.887Z,1.44
2019-01-17T18:46:44.387Z,1.27
2019-01-17T18:49:12.684Z,1.14
2019-01-17T18:51:42.834Z,0.93
2019-01-17T18:54:10.427Z,0.64
2019-01-17T18:56:38.129Z,0.49
2019-01-17T18:59:06.699Z,0.30
2019-01-17T19:01:35.311Z,0.21
2019-01-17T19:04:03.908Z,0.16
2019-01-17T19:06:32.106Z,0.14
2019-01-17T19:09:00.585Z,0.14
2019-01-17T19:11:48.199Z,0.05
2019-01-17T19:14:16.933Z,-0.07
2019-01-17T19:16:45.729Z,-0.15
2019-01-17T19:19:14.463Z,-0.26
2019-01-17T19:21:42.935Z,-0.31
2019-01-17T19:24:51.462Z,-0.41
2019-01-17T19:30:29.646Z,-0.41
2019-01-17T19:33:38.119Z,-0.48
2019-01-17T19:36:46.412Z,-0.68
2019-01-17T19:39:14.639Z,-0.76
2019-01-17T19:44:51.329Z,-0.75
2019-01-17T19:47:19.997Z,-0.66
2019-01-17T19:49:48.489Z,-0.62
2019-01-17T19:52:56.984Z,-0.60
2019-01-17T19:56:05.691Z,-0.60
2019-01-17T19:58:34.197Z,-0.55
2019-01-17T20:01:42.324Z,-0.51
2019-01-17T20:07:46.595Z,-0.47
2019-01-17T20:10:56.700Z,-0.44
2019-01-17T20:16:33.189Z,-0.40
2019-01-17T20:25:44.024Z,-0.33
2019-01-17T20:28:52.437Z,-0.34
2019-01-17T20:34:35.416Z,-0.35
2019-01-17T20:37:04.047Z,-0.37
2019-01-17T20:39:32.336Z,-0.49
2019-01-17T20:44:56.845Z,-0.53
2019-01-17T20:47:24.343Z,-0.59
2019-01-17T20:49:52.193Z,-0.57
2019-01-17T20:55:35.412Z,-0.57
2019-01-17T20:58:04.215Z,-0.63
2019-01-17T21:01:03.858Z,-0.64
2019-01-17T21:12:18.729Z,-0.74
2019-01-17T21:18:01.274Z,-0.78
2019-01-17T21:23:38.204Z,-0.75
2019-01-17T21:26:05.959Z,-0.72
2019-01-17T21:29:13.816Z,-0.61
2019-01-17T21:32:22.237Z,-0.62
2019-01-17T21:35:30.382Z,-0.55
2019-01-17T21:38:18.383Z,-0.49
2019-01-17T21:41:05.994Z,-0.42
2019-01-17T21:44:14.136Z,-0.44
2019-01-17T21:47:23.464Z,-0.43
2019-01-17T21:49:52.469Z,-0.42
2019-01-17T21:52:21.189Z,-0.40
2019-01-17T21:55:29.539Z,-0.43
2019-01-17T21:58:17.114Z,-0.35
2019-01-17T22:01:25.701Z,-0.41
2019-01-17T22:03:54.633Z,-0.48
2019-01-17T22:06:23.305Z,-0.52
2019-01-17T22:08:51.272Z,-0.51
2019-01-17T22:11:20.053Z,-0.57
2019-01-17T22:13:48.557Z,-0.73
2019-01-17T22:16:16.978Z,-1.14
2019-01-17T22:18:45.012Z,-1.34
2019-01-17T22:21:13.605Z,-1.42
2019-01-17T22:26:50.076Z,-1.49
2019-01-17T22:32:26.457Z,-1.51
2019-01-17T22:34:55.034Z,-1.49
2019-01-17T22:37:22.904Z,-1.46
2019-01-17T22:40:30.713Z,-1.45
2019-01-17T22:42:59.269Z,-1.47
2019-01-17T22:46:08.390Z,-1.47
2019-01-17T22:51:32.046Z,-1.36
2019-01-17T22:57:48.933Z,-1.39
2019-01-17T23:01:06.575Z,-1.35
2019-01-17T23:03:54.222Z,-1.32
2019-01-17T23:06:22.388Z,-1.42
2019-01-17T23:08:50.569Z,-1.43
2019-01-17T23:11:18.978Z,-1.43
2019-01-17T23:13:47.433Z,-1.35
2019-01-17T23:16:55.657Z,-1.29
2019-01-17T23:19:42.591Z,-1.32
2019-01-17T23:22:11.194Z,-1.36
2019-01-17T23:24:38.938Z,-1.42
2019-01-17T23:27:07.082Z,-1.37
2019-01-17T23:29:54.595Z,-1.36
2019-01-17T23:32:22.981Z,-1.33
2019-01-17T23:34:51.504Z,-1.33
2019-01-17T23:37:19.656Z,-1.37
2019-01-17T23:39:47.737Z,-1.44
2019-01-17T23:42:55.803Z,-1.47
2019-01-17T23:46:04.303Z,-1.44
2019-01-17T23:48:32.568Z,-1.47
2019-01-17T23:53:54.509Z,-1.61
2019-01-17T23:56:23.075Z,-1.67
2019-01-17T23:58:51.608Z,-1.70
